sensor_id;sensor_type;location;lat;lon;timestamp;pressure;altitude;pressure_sealevel;temperature;humidity
44079;BME280;29744;49.078;12.878;2023-01-29T00:02:51;97330.03;;;14.88;32.97
44079;BME280;29744;49.078;12.878;2023-01-29T00:07:52;97315.25;;;14.86;33.16
44079;BME280;29744;49.078;12.878;2023-01-29T00:12:52;97308.84;;;14.81;33.17
44079;BME280;29744;49.078;12.878;2023-01-29T00:17:52;97314.06;;;14.78;32.86
44079;BME280;29744;49.078;12.878;2023-01-29T00:22:53;97320.88;;;14.75;32.84
44079;BME280;29744;49.078;12.878;2023-01-29T00:27:53;97324.16;;;14.72;33.19
44079;BME280;29744;49.078;12.878;2023-01-29T00:32:53;97326.69;;;14.69;33.02
44079;BME280;29744;49.078;12.878;2023-01-29T00:37:54;97321.09;;;14.65;33.07
44079;BME280;29744;49.078;12.878;2023-01-29T00:42:54;97307.09;;;14.63;33.09
44079;BME280;29744;49.078;12.878;2023-01-29T00:48:13;97327.69;;;14.59;33.00
44079;BME280;29744;49.078;12.878;2023-01-29T00:53:14;97314.81;;;14.56;33.45
44079;BME280;29744;49.078;12.878;2023-01-29T00:58:14;97310.81;;;14.54;33.56
44079;BME280;29744;49.078;12.878;2023-01-29T01:03:21;97305.22;;;14.50;33.11
44079;BME280;29744;49.078;12.878;2023-01-29T01:08:21;97296.63;;;14.48;33.25
44079;BME280;29744;49.078;12.878;2023-01-29T01:13:40;97298.81;;;14.46;33.49
44079;BME280;29744;49.078;12.878;2023-01-29T01:18:41;97295.63;;;14.44;33.14
44079;BME280;29744;49.078;12.878;2023-01-29T01:23:41;97291.63;;;14.41;33.63
44079;BME280;29744;49.078;12.878;2023-01-29T01:28:41;97311.91;;;14.39;33.38
44079;BME280;29744;49.078;12.878;2023-01-29T01:33:41;97309.81;;;14.36;33.20
44079;BME280;29744;49.078;12.878;2023-01-29T01:38:42;97310.94;;;14.35;33.23
44079;BME280;29744;49.078;12.878;2023-01-29T01:43:58;97297.53;;;14.30;33.39
44079;BME280;29744;49.078;12.878;2023-01-29T01:49:06;97295.94;;;14.29;33.71
44079;BME280;29744;49.078;12.878;2023-01-29T01:54:12;97283.84;;;14.26;33.65
44079;BME280;29744;49.078;12.878;2023-01-29T01:59:16;97279.84;;;14.24;33.54
44079;BME280;29744;49.078;12.878;2023-01-29T02:04:22;97283.13;;;14.21;33.76
44079;BME280;29744;49.078;12.878;2023-01-29T02:09:49;97293.41;;;14.18;33.68
44079;BME280;29744;49.078;12.878;2023-01-29T02:14:51;97286.72;;;14.16;33.75
44079;BME280;29744;49.078;12.878;2023-01-29T02:20:04;97292.41;;;14.14;33.71
44079;BME280;29744;49.078;12.878;2023-01-29T02:25:30;97290.31;;;14.11;33.98
44079;BME280;29744;49.078;12.878;2023-01-29T02:30:40;97288.72;;;14.10;33.62
44079;BME280;29744;49.078;12.878;2023-01-29T02:37:08;97296.91;;;14.05;33.93
44079;BME280;29744;49.078;12.878;2023-01-29T02:46:54;97304.50;;;14.03;33.84
44079;BME280;29744;49.078;12.878;2023-01-29T02:52:02;97304.00;;;14.01;33.93
44079;BME280;29744;49.078;12.878;2023-01-29T02:57:20;97301.59;;;14.00;33.83
44079;BME280;29744;49.078;12.878;2023-01-29T03:02:28;97303.00;;;13.97;33.69
44079;BME280;29744;49.078;12.878;2023-01-29T03:07:34;97285.22;;;13.96;34.22
44079;BME280;29744;49.078;12.878;2023-01-29T03:12:50;97287.41;;;13.94;33.84
44079;BME280;29744;49.078;12.878;2023-01-29T03:17:58;97280.72;;;13.92;33.79
44079;BME280;29744;49.078;12.878;2023-01-29T03:23:05;97289.91;;;13.91;34.28
44079;BME280;29744;49.078;12.878;2023-01-29T03:28:08;97289.28;;;13.80;34.13
44079;BME280;29744;49.078;12.878;2023-01-29T03:33:31;97298.41;;;13.84;34.26
44079;BME280;29744;49.078;12.878;2023-01-29T03:38:32;97304.88;;;13.83;34.08
44079;BME280;29744;49.078;12.878;2023-01-29T03:48:52;97302.75;;;13.80;34.04
44079;BME280;29744;49.078;12.878;2023-01-29T03:54:27;97308.44;;;13.78;34.21
44079;BME280;29744;49.078;12.878;2023-01-29T03:59:46;97316.22;;;13.80;34.01
44079;BME280;29744;49.078;12.878;2023-01-29T04:04:54;97338.91;;;13.79;34.07
44079;BME280;29744;49.078;12.878;2023-01-29T04:10:03;97333.81;;;13.77;33.97
44079;BME280;29744;49.078;12.878;2023-01-29T04:15:10;97316.03;;;13.76;34.23
44079;BME280;29744;49.078;12.878;2023-01-29T04:20:14;97314.13;;;13.77;33.89
44079;BME280;29744;49.078;12.878;2023-01-29T04:25:17;97304.44;;;13.76;34.36
44079;BME280;29744;49.078;12.878;2023-01-29T04:41:31;97315.31;;;13.71;34.26
44079;BME280;29744;49.078;12.878;2023-01-29T04:46:45;97317.72;;;13.72;34.28
44079;BME280;29744;49.078;12.878;2023-01-29T04:52:04;97304.44;;;13.76;34.07
44079;BME280;29744;49.078;12.878;2023-01-29T04:57:14;97303.78;;;13.84;33.93
44079;BME280;29744;49.078;12.878;2023-01-29T05:02:18;97311.38;;;13.96;34.12
44079;BME280;29744;49.078;12.878;2023-01-29T05:07:20;97312.50;;;14.08;34.32
44079;BME280;29744;49.078;12.878;2023-01-29T05:12:24;97293.66;;;14.22;34.13
44079;BME280;29744;49.078;12.878;2023-01-29T05:17:26;97303.03;;;14.38;34.17
44079;BME280;29744;49.078;12.878;2023-01-29T05:22:27;97290.50;;;14.56;34.08
44079;BME280;29744;49.078;12.878;2023-01-29T05:27:32;97275.28;;;14.74;33.98
44079;BME280;29744;49.078;12.878;2023-01-29T05:32:52;97277.81;;;14.93;33.75
44079;BME280;29744;49.078;12.878;2023-01-29T05:37:56;97282.75;;;15.13;33.54
44079;BME280;29744;49.078;12.878;2023-01-29T05:42:57;97284.19;;;15.33;33.52
44079;BME280;29744;49.078;12.878;2023-01-29T05:47:57;97275.88;;;15.52;33.28
44079;BME280;29744;49.078;12.878;2023-01-29T05:52:59;97277.25;;;15.71;33.35
44079;BME280;29744;49.078;12.878;2023-01-29T05:58:00;97279.75;;;15.90;33.31
44079;BME280;29744;49.078;12.878;2023-01-29T06:03:00;97282.53;;;16.07;33.36
44079;BME280;29744;49.078;12.878;2023-01-29T06:08:00;97289.09;;;16.24;32.90
44079;BME280;29744;49.078;12.878;2023-01-29T06:13:01;97287.56;;;16.40;32.67
44079;BME280;29744;49.078;12.878;2023-01-29T06:18:01;97286.66;;;16.53;32.85
44079;BME280;29744;49.078;12.878;2023-01-29T06:23:02;97280.97;;;16.63;32.39
44079;BME280;29744;49.078;12.878;2023-01-29T06:28:02;97287.19;;;16.72;32.33
44079;BME280;29744;49.078;12.878;2023-01-29T06:33:02;97278.13;;;16.77;32.42
44079;BME280;29744;49.078;12.878;2023-01-29T06:38:03;97272.53;;;16.82;32.32
44079;BME280;29744;49.078;12.878;2023-01-29T06:43:03;97265.38;;;16.86;32.01
44079;BME280;29744;49.078;12.878;2023-01-29T06:48:03;97248.00;;;16.87;32.14
44079;BME280;29744;49.078;12.878;2023-01-29T06:53:04;97249.91;;;16.87;31.93
44079;BME280;29744;49.078;12.878;2023-01-29T06:58:09;97258.84;;;16.87;32.14
44079;BME280;29744;49.078;12.878;2023-01-29T07:03:09;97257.25;;;16.86;31.85
44079;BME280;29744;49.078;12.878;2023-01-29T07:08:10;97273.81;;;16.85;32.11
44079;BME280;29744;49.078;12.878;2023-01-29T07:13:10;97274.94;;;16.84;32.05
44079;BME280;29744;49.078;12.878;2023-01-29T07:18:10;97287.34;;;16.85;31.95
44079;BME280;29744;49.078;12.878;2023-01-29T07:23:12;97299.00;;;16.85;31.90
44079;BME280;29744;49.078;12.878;2023-01-29T07:28:12;97310.31;;;16.87;32.17
44079;BME280;29744;49.078;12.878;2023-01-29T07:33:13;97305.84;;;16.91;32.21
44079;BME280;29744;49.078;12.878;2023-01-29T07:38:13;97302.81;;;16.93;32.07
44079;BME280;29744;49.078;12.878;2023-01-29T07:43:13;97300.59;;;16.95;32.25
44079;BME280;29744;49.078;12.878;2023-01-29T07:48:15;97309.50;;;16.95;32.17
44079;BME280;29744;49.078;12.878;2023-01-29T07:53:15;97314.94;;;16.95;32.07
44079;BME280;29744;49.078;12.878;2023-01-29T07:58:15;97325.78;;;16.95;31.81
44079;BME280;29744;49.078;12.878;2023-01-29T08:03:17;97328.81;;;16.94;31.90
44079;BME280;29744;49.078;12.878;2023-01-29T08:08:19;97324.00;;;16.91;31.66
44079;BME280;29744;49.078;12.878;2023-01-29T08:13:22;97338.19;;;16.88;31.91
44079;BME280;29744;49.078;12.878;2023-01-29T08:18:22;97343.94;;;16.86;31.98
44079;BME280;29744;49.078;12.878;2023-01-29T08:23:22;97348.06;;;16.84;32.05
44079;BME280;29744;49.078;12.878;2023-01-29T08:28:23;97343.28;;;16.81;31.80
44079;BME280;29744;49.078;12.878;2023-01-29T08:33:23;97348.53;;;16.77;32.29
44079;BME280;29744;49.078;12.878;2023-01-29T08:38:26;97348.06;;;16.75;32.19
44079;BME280;29744;49.078;12.878;2023-01-29T08:43:27;97363.34;;;16.71;31.86
44079;BME280;29744;49.078;12.878;2023-01-29T08:48:27;97376.41;;;16.69;32.08
44079;BME280;29744;49.078;12.878;2023-01-29T08:53:30;97378.63;;;16.67;31.91
44079;BME280;29744;49.078;12.878;2023-01-29T08:58:31;97373.03;;;16.63;31.93
44079;BME280;29744;49.078;12.878;2023-01-29T09:03:31;97374.16;;;16.62;32.17
44079;BME280;29744;49.078;12.878;2023-01-29T09:08:31;97379.09;;;16.60;32.17
44079;BME280;29744;49.078;12.878;2023-01-29T09:13:32;97366.66;;;16.59;32.09
44079;BME280;29744;49.078;12.878;2023-01-29T09:18:32;97361.06;;;16.56;32.36
44079;BME280;29744;49.078;12.878;2023-01-29T09:23:32;97364.88;;;16.55;32.24
44079;BME280;29744;49.078;12.878;2023-01-29T09:28:33;97357.06;;;16.53;32.39
44079;BME280;29744;49.078;12.878;2023-01-29T09:33:33;97364.69;;;16.51;32.01
44079;BME280;29744;49.078;12.878;2023-01-29T09:38:33;97356.09;;;16.49;32.50
44079;BME280;29744;49.078;12.878;2023-01-29T09:43:58;97351.94;;;16.43;32.38
44079;BME280;29744;49.078;12.878;2023-01-29T09:49:07;97348.41;;;16.42;32.07
44079;BME280;29744;49.078;12.878;2023-01-29T09:54:15;97340.91;;;16.39;32.02
44079;BME280;29744;49.078;12.878;2023-01-29T09:59:18;97349.34;;;16.38;32.45
44079;BME280;29744;49.078;12.878;2023-01-29T10:20:57;97328.06;;;16.14;32.62
44079;BME280;29744;49.078;12.878;2023-01-29T10:26:01;97335.69;;;16.12;32.22
44079;BME280;29744;49.078;12.878;2023-01-29T10:31:15;97325.81;;;16.07;32.56
44079;BME280;29744;49.078;12.878;2023-01-29T10:36:21;97319.13;;;16.05;32.69
44079;BME280;29744;49.078;12.878;2023-01-29T10:47:10;97322.41;;;15.93;32.42
44079;BME280;29744;49.078;12.878;2023-01-29T10:57:26;97303.91;;;15.87;32.91
44079;BME280;29744;49.078;12.878;2023-01-29T11:02:29;97292.59;;;15.85;33.13
44079;BME280;29744;49.078;12.878;2023-01-29T11:07:30;97277.00;;;15.82;33.05
44079;BME280;29744;49.078;12.878;2023-01-29T11:12:31;97258.88;;;15.82;32.93
44079;BME280;29744;49.078;12.878;2023-01-29T11:17:32;97250.75;;;15.82;32.59
44079;BME280;29744;49.078;12.878;2023-01-29T11:22:32;97232.63;;;15.83;32.61
44079;BME280;29744;49.078;12.878;2023-01-29T11:27:41;97224.03;;;15.81;32.90
44079;BME280;29744;49.078;12.878;2023-01-29T11:32:42;97233.25;;;15.80;32.69
44079;BME280;29744;49.078;12.878;2023-01-29T11:37:44;97233.53;;;15.78;32.50
44079;BME280;29744;49.078;12.878;2023-01-29T11:42:45;97227.16;;;15.74;32.92
44079;BME280;29744;49.078;12.878;2023-01-29T11:47:52;97231.59;;;15.70;32.73
44079;BME280;29744;49.078;12.878;2023-01-29T11:52:53;97216.78;;;15.67;32.87
44079;BME280;29744;49.078;12.878;2023-01-29T11:58:11;97208.00;;;15.62;32.81
44079;BME280;29744;49.078;12.878;2023-01-29T12:08:17;97202.25;;;15.55;33.20
44079;BME280;29744;49.078;12.878;2023-01-29T12:13:25;97191.56;;;15.50;32.75
44079;BME280;29744;49.078;12.878;2023-01-29T12:18:39;97175.50;;;15.44;32.75
44079;BME280;29744;49.078;12.878;2023-01-29T12:34:14;97154.47;;;15.33;33.39
44079;BME280;29744;49.078;12.878;2023-01-29T12:39:18;97162.38;;;15.29;33.17
44079;BME280;29744;49.078;12.878;2023-01-29T12:44:32;97152.50;;;15.25;33.38
44079;BME280;29744;49.078;12.878;2023-01-29T12:49:37;97143.13;;;15.22;33.01
44079;BME280;29744;49.078;12.878;2023-01-29T12:54:45;97142.63;;;15.20;33.46
44079;BME280;29744;49.078;12.878;2023-01-29T12:59:53;97135.47;;;15.16;33.34
44079;BME280;29744;49.078;12.878;2023-01-29T13:04:58;97127.97;;;15.12;33.47
44079;BME280;29744;49.078;12.878;2023-01-29T13:10:06;97131.59;;;15.08;33.24
44079;BME280;29744;49.078;12.878;2023-01-29T13:15:21;97138.72;;;15.04;33.35
44079;BME280;29744;49.078;12.878;2023-01-29T13:20:31;97139.31;;;15.01;33.40
44079;BME280;29744;49.078;12.878;2023-01-29T13:25:32;97133.75;;;14.97;33.42
44079;BME280;29744;49.078;12.878;2023-01-29T13:30:35;97138.66;;;14.95;33.48
44079;BME280;29744;49.078;12.878;2023-01-29T13:35:38;97137.38;;;14.93;33.23
44079;BME280;29744;49.078;12.878;2023-01-29T13:40:49;97160.69;;;14.89;33.30
44079;BME280;29744;49.078;12.878;2023-01-29T13:45:51;97151.31;;;14.86;33.38
44079;BME280;29744;49.078;12.878;2023-01-29T13:50:55;97149.22;;;14.83;33.61
44079;BME280;29744;49.078;12.878;2023-01-29T14:06:51;97122.47;;;14.73;33.73
44079;BME280;29744;49.078;12.878;2023-01-29T14:11:52;97122.78;;;14.71;33.72
44079;BME280;29744;49.078;12.878;2023-01-29T14:16:59;97121.19;;;14.70;33.80
44079;BME280;29744;49.078;12.878;2023-01-29T14:22:01;97120.88;;;14.72;33.76
44079;BME280;29744;49.078;12.878;2023-01-29T14:27:01;97121.38;;;14.74;34.07
44079;BME280;29744;49.078;12.878;2023-01-29T14:52:42;97100.28;;;15.07;33.69
44079;BME280;29744;49.078;12.878;2023-01-29T14:57:43;97103.03;;;15.16;33.83
44079;BME280;29744;49.078;12.878;2023-01-29T15:02:44;97097.34;;;15.26;33.87
44079;BME280;29744;49.078;12.878;2023-01-29T15:07:59;97100.25;;;15.38;33.87
44079;BME280;29744;49.078;12.878;2023-01-29T15:13:08;97103.00;;;15.46;33.82
44079;BME280;29744;49.078;12.878;2023-01-29T15:18:18;97088.41;;;15.56;33.55
44079;BME280;29744;49.078;12.878;2023-01-29T15:23:30;97091.91;;;15.65;33.89
44079;BME280;29744;49.078;12.878;2023-01-29T15:28:33;97090.34;;;15.73;33.49
44079;BME280;29744;49.078;12.878;2023-01-29T15:33:34;97093.41;;;15.80;33.66
44079;BME280;29744;49.078;12.878;2023-01-29T15:38:37;97094.84;;;15.86;33.42
44079;BME280;29744;49.078;12.878;2023-01-29T15:43:42;97092.47;;;15.93;33.43
44079;BME280;29744;49.078;12.878;2023-01-29T15:48:43;97090.88;;;16.01;32.98
44079;BME280;29744;49.078;12.878;2023-01-29T15:53:50;97094.22;;;16.06;33.40
44079;BME280;29744;49.078;12.878;2023-01-29T15:58:51;97098.38;;;16.13;33.05
44079;BME280;29744;49.078;12.878;2023-01-29T16:03:53;97098.22;;;16.18;33.08
44079;BME280;29744;49.078;12.878;2023-01-29T16:08:54;97100.28;;;16.21;33.05
44079;BME280;29744;49.078;12.878;2023-01-29T16:13:54;97088.81;;;16.24;33.13
44079;BME280;29744;49.078;12.878;2023-01-29T16:18:56;97092.81;;;16.26;33.04
44079;BME280;29744;49.078;12.878;2023-01-29T16:24:09;97088.97;;;16.27;32.82
44079;BME280;29744;49.078;12.878;2023-01-29T16:29:16;97091.38;;;16.29;33.05
44079;BME280;29744;49.078;12.878;2023-01-29T16:34:30;97095.19;;;16.28;32.93
44079;BME280;29744;49.078;12.878;2023-01-29T16:39:37;97087.41;;;16.26;32.86
44079;BME280;29744;49.078;12.878;2023-01-29T16:44:39;97082.28;;;16.25;32.84
44079;BME280;29744;49.078;12.878;2023-01-29T16:49:48;97087.22;;;16.23;32.72
44079;BME280;29744;49.078;12.878;2023-01-29T16:54:49;97091.06;;;16.22;32.94
44079;BME280;29744;49.078;12.878;2023-01-29T16:59:53;97088.66;;;16.20;32.62
44079;BME280;29744;49.078;12.878;2023-01-29T17:04:59;97089.78;;;16.19;32.87
44079;BME280;29744;49.078;12.878;2023-01-29T17:10:03;97091.69;;;16.19;32.87
44079;BME280;29744;49.078;12.878;2023-01-29T17:20:30;97093.13;;;16.16;32.72
44079;BME280;29744;49.078;12.878;2023-01-29T17:25:31;97091.22;;;16.17;32.86
44079;BME280;29744;49.078;12.878;2023-01-29T17:30:34;97091.69;;;16.19;32.76
44079;BME280;29744;49.078;12.878;2023-01-29T17:35:36;97113.34;;;16.19;33.19
44079;BME280;29744;49.078;12.878;2023-01-29T17:40:40;97115.09;;;16.23;32.55
44079;BME280;29744;49.078;12.878;2023-01-29T17:45:41;97109.38;;;16.25;32.67
44079;BME280;29744;49.078;12.878;2023-01-29T17:50:43;97100.59;;;16.28;32.99
44079;BME280;29744;49.078;12.878;2023-01-29T17:55:48;97105.69;;;16.29;32.81
44079;BME280;29744;49.078;12.878;2023-01-29T18:00:49;97103.78;;;16.30;32.76
44079;BME280;29744;49.078;12.878;2023-01-29T18:05:49;97100.75;;;16.31;32.72
44079;BME280;29744;49.078;12.878;2023-01-29T18:10:49;97090.25;;;16.30;32.88
44079;BME280;29744;49.078;12.878;2023-01-29T18:15:50;97085.97;;;16.29;32.34
44079;BME280;29744;49.078;12.878;2023-01-29T18:20:51;97084.38;;;16.28;32.47
44079;BME280;29744;49.078;12.878;2023-01-29T18:25:51;97078.00;;;16.24;32.69
44079;BME280;29744;49.078;12.878;2023-01-29T18:30:53;97076.72;;;16.21;32.97
44079;BME280;29744;49.078;12.878;2023-01-29T18:35:53;97078.16;;;16.19;32.46
44079;BME280;29744;49.078;12.878;2023-01-29T18:41:01;97073.38;;;16.16;32.94
44079;BME280;29744;49.078;12.878;2023-01-29T18:46:02;97072.13;;;16.13;32.71
44079;BME280;29744;49.078;12.878;2023-01-29T18:51:02;97087.72;;;16.07;32.85
44079;BME280;29744;49.078;12.878;2023-01-29T18:56:04;97092.16;;;16.03;32.53
44079;BME280;29744;49.078;12.878;2023-01-29T19:01:05;97094.72;;;16.00;33.01
44079;BME280;29744;49.078;12.878;2023-01-29T19:06:09;97092.16;;;15.95;32.90
44079;BME280;29744;49.078;12.878;2023-01-29T19:11:10;97089.28;;;15.91;33.07
44079;BME280;29744;49.078;12.878;2023-01-29T19:16:11;97084.50;;;15.88;32.58
44079;BME280;29744;49.078;12.878;2023-01-29T19:21:14;97084.34;;;15.85;32.75
44079;BME280;29744;49.078;12.878;2023-01-29T19:26:15;97083.88;;;15.83;33.01
44079;BME280;29744;49.078;12.878;2023-01-29T19:31:15;97082.59;;;15.80;33.06
44079;BME280;29744;49.078;12.878;2023-01-29T19:36:16;97082.59;;;15.80;33.06
44079;BME280;29744;49.078;12.878;2023-01-29T19:41:16;97087.19;;;15.80;32.99
44079;BME280;29744;49.078;12.878;2023-01-29T19:46:16;97082.59;;;15.80;33.01
44079;BME280;29744;49.078;12.878;2023-01-29T19:51:17;97086.88;;;15.81;32.74
44079;BME280;29744;49.078;12.878;2023-01-29T19:56:17;97083.06;;;15.82;32.79
44079;BME280;29744;49.078;12.878;2023-01-29T20:01:20;97078.13;;;15.84;32.67
44079;BME280;29744;49.078;12.878;2023-01-29T20:06:25;97083.22;;;15.86;32.83
44079;BME280;29744;49.078;12.878;2023-01-29T20:11:26;97088.31;;;15.87;32.71
44079;BME280;29744;49.078;12.878;2023-01-29T20:16:26;97087.69;;;15.90;33.19
44079;BME280;29744;49.078;12.878;2023-01-29T20:21:27;97078.16;;;15.93;32.68
44079;BME280;29744;49.078;12.878;2023-01-29T20:26:27;97083.25;;;15.94;33.27
44079;BME280;29744;49.078;12.878;2023-01-29T20:31:27;97074.00;;;15.95;33.12
44079;BME280;29744;49.078;12.878;2023-01-29T20:36:27;97073.69;;;15.97;33.24
44079;BME280;29744;49.078;12.878;2023-01-29T20:41:28;97076.41;;;15.97;32.63
44079;BME280;29744;49.078;12.878;2023-01-29T20:46:28;97067.50;;;15.96;32.98
44079;BME280;29744;49.078;12.878;2023-01-29T20:51:29;97057.78;;;15.95;32.81
44079;BME280;29744;49.078;12.878;2023-01-29T20:56:29;97047.28;;;15.94;32.97
44079;BME280;29744;49.078;12.878;2023-01-29T21:01:30;97044.56;;;15.94;32.93
44079;BME280;29744;49.078;12.878;2023-01-29T21:06:30;97027.06;;;15.91;32.97
44079;BME280;29744;49.078;12.878;2023-01-29T21:11:30;97020.06;;;15.90;32.84
44079;BME280;29744;49.078;12.878;2023-01-29T21:16:32;97028.19;;;15.90;33.04
44079;BME280;29744;49.078;12.878;2023-01-29T21:21:32;97022.63;;;15.87;32.94
44079;BME280;29744;49.078;12.878;2023-01-29T21:26:34;97006.72;;;15.85;32.73
44079;BME280;29744;49.078;12.878;2023-01-29T21:31:37;97008.94;;;15.83;33.22
44079;BME280;29744;49.078;12.878;2023-01-29T21:36:37;96992.22;;;15.81;32.99
44079;BME280;29744;49.078;12.878;2023-01-29T21:41:38;97001.75;;;15.78;32.96
44079;BME280;29744;49.078;12.878;2023-01-29T21:46:57;96993.78;;;15.73;32.84
44079;BME280;29744;49.078;12.878;2023-01-29T21:51:57;96986.63;;;15.69;33.06
44079;BME280;29744;49.078;12.878;2023-01-29T21:56:57;96990.75;;;15.66;32.91
44079;BME280;29744;49.078;12.878;2023-01-29T22:01:58;96992.19;;;15.64;32.80
44079;BME280;29744;49.078;12.878;2023-01-29T22:06:59;96995.06;;;15.59;33.35
44079;BME280;29744;49.078;12.878;2023-01-29T22:11:59;97001.88;;;15.56;33.18
44079;BME280;29744;49.078;12.878;2023-01-29T22:16:59;96998.22;;;15.52;33.13
44079;BME280;29744;49.078;12.878;2023-01-29T22:22:00;96996.94;;;15.50;33.52
44079;BME280;29744;49.078;12.878;2023-01-29T22:27:00;96989.47;;;15.46;32.96
44079;BME280;29744;49.078;12.878;2023-01-29T22:32:01;96979.28;;;15.43;33.29
44079;BME280;29744;49.078;12.878;2023-01-29T22:37:01;96974.53;;;15.40;33.13
44079;BME280;29744;49.078;12.878;2023-01-29T22:42:01;96971.34;;;15.38;33.38
44079;BME280;29744;49.078;12.878;2023-01-29T22:47:01;96966.56;;;15.35;33.06
44079;BME280;29744;49.078;12.878;2023-01-29T22:52:02;96967.19;;;15.32;32.93
44079;BME280;29744;49.078;12.878;2023-01-29T22:57:12;96962.72;;;15.28;33.09
44079;BME280;29744;49.078;12.878;2023-01-29T23:02:13;96942.53;;;15.25;33.36
44079;BME280;29744;49.078;12.878;2023-01-29T23:07:13;96928.06;;;15.21;33.34
44079;BME280;29744;49.078;12.878;2023-01-29T23:12:14;96926.81;;;15.19;33.39
44079;BME280;29744;49.078;12.878;2023-01-29T23:17:14;96914.25;;;15.14;33.70
44079;BME280;29744;49.078;12.878;2023-01-29T23:22:15;96907.88;;;15.10;33.55
44079;BME280;29744;49.078;12.878;2023-01-29T23:27:15;96899.59;;;15.06;33.46
44079;BME280;29744;49.078;12.878;2023-01-29T23:32:18;96901.81;;;15.04;33.38
44079;BME280;29744;49.078;12.878;2023-01-29T23:37:18;96885.44;;;15.01;33.87
44079;BME280;29744;49.078;12.878;2023-01-29T23:42:18;96873.34;;;14.98;33.51
44079;BME280;29744;49.078;12.878;2023-01-29T23:47:19;96875.09;;;14.94;33.67
44079;BME280;29744;49.078;12.878;2023-01-29T23:52:19;96864.91;;;14.91;33.49
44079;BME280;29744;49.078;12.878;2023-01-29T23:57:19;96843.16;;;14.88;33.73
